LSGC Airport Information

Runway Information
Runway 06 Length 3707 ft width 89 ft
Elevation 3368 ft Threshold 230 ft Heading 54
Runway 24 Length 3707 ft Width 89 ft
Elevation 3343 ft Threshold 328 ft Heading 234
Airport Frequencies
Type TWR Name TWR Frequency 118.125 MHZ
Airport Navaids
Type NDB Name Les Eplatures Frequency 403 KHZ
Airport Weather Information & NOTAM
ADDS - METARS form results

(0303 UTC 23 January 2023)
Data provider http://aviationweather.gov/metar/data/
 
METAR text: LSGC 230250Z AUTO 06010KT 030V110 9999 -SN SCT012 OVC014 OVC016 M05/M07 Q1022
Conditions at: LSGC (LES EPLATURES , CH) observed 0250 UTC 23 January 2023
Temperature: -5.0°C (23°F)
Dewpoint: -7.0°C (19°F) [RH = 86%]
Pressure (altimeter): 30.18 inches Hg (1022.0 mb)
Winds: from the ENE (60 degrees) at 12 MPH (10 knots; 5.1 m/s)
Visibility: 6 or more miles (10+ km)
Ceiling: 1400 feet AGL
Clouds: scattered clouds at 1200 feet AGL
overcast cloud deck at 1400 feet AGL
overcast cloud deck at 1600 feet AGL
Weather: -SN  (light snow)

METAR text: LSGC 230220Z AUTO 07010KT 9999 -SN BKN011 BKN013 M05/M07 Q1022
Conditions at: LSGC (LES EPLATURES , CH) observed 0220 UTC 23 January 2023
Temperature: -5.0°C (23°F)
Dewpoint: -7.0°C (19°F) [RH = 86%]
Pressure (altimeter): 30.18 inches Hg (1022.0 mb)
Winds: from the ENE (70 degrees) at 12 MPH (10 knots; 5.1 m/s)
Visibility: 6 or more miles (10+ km)
Ceiling: 1100 feet AGL
Clouds: broken clouds at 1100 feet AGL
broken clouds at 1300 feet AGL
Weather: -SN  (light snow)